sensor_id;sensor_type;location;lat;lon;timestamp;temperature;humidity
506;DHT22;551;48.524;9.056;2023-07-22T00:00:15;14.30;1.00
506;DHT22;551;48.524;9.056;2023-07-22T00:02:42;14.30;1.00
506;DHT22;551;48.524;9.056;2023-07-22T00:05:08;14.30;1.00
506;DHT22;551;48.524;9.056;2023-07-22T00:07:35;14.30;1.00
506;DHT22;551;48.524;9.056;2023-07-22T00:10:01;14.30;1.00
506;DHT22;551;48.524;9.056;2023-07-22T00:12:26;14.30;1.00
506;DHT22;551;48.524;9.056;2023-07-22T00:14:52;14.30;1.00
506;DHT22;551;48.524;9.056;2023-07-22T00:17:18;14.20;1.00
506;DHT22;551;48.524;9.056;2023-07-22T00:19:46;14.20;1.00
506;DHT22;551;48.524;9.056;2023-07-22T00:22:12;14.20;1.00
506;DHT22;551;48.524;9.056;2023-07-22T00:24:37;14.10;1.00
506;DHT22;551;48.524;9.056;2023-07-22T00:27:03;14.10;1.00
506;DHT22;551;48.524;9.056;2023-07-22T00:29:29;14.00;1.00
506;DHT22;551;48.524;9.056;2023-07-22T00:31:54;14.00;1.00
506;DHT22;551;48.524;9.056;2023-07-22T00:34:21;13.90;1.00
506;DHT22;551;48.524;9.056;2023-07-22T00:36:48;13.90;1.00
506;DHT22;551;48.524;9.056;2023-07-22T00:39:14;13.90;1.00
506;DHT22;551;48.524;9.056;2023-07-22T00:41:39;13.90;1.00
506;DHT22;551;48.524;9.056;2023-07-22T00:44:06;13.90;1.00
506;DHT22;551;48.524;9.056;2023-07-22T00:46:31;13.90;1.00
506;DHT22;551;48.524;9.056;2023-07-22T00:48:57;13.90;1.00
506;DHT22;551;48.524;9.056;2023-07-22T00:51:22;13.80;1.00
506;DHT22;551;48.524;9.056;2023-07-22T00:53:48;13.80;1.00
506;DHT22;551;48.524;9.056;2023-07-22T00:56:14;13.80;1.00
506;DHT22;551;48.524;9.056;2023-07-22T00:58:40;13.80;1.00
506;DHT22;551;48.524;9.056;2023-07-22T01:01:05;13.80;1.00
506;DHT22;551;48.524;9.056;2023-07-22T01:03:31;13.80;1.00
506;DHT22;551;48.524;9.056;2023-07-22T01:05:56;13.70;1.00
506;DHT22;551;48.524;9.056;2023-07-22T01:08:24;13.80;1.00
506;DHT22;551;48.524;9.056;2023-07-22T01:10:49;13.70;1.00
506;DHT22;551;48.524;9.056;2023-07-22T01:13:15;13.70;1.00
506;DHT22;551;48.524;9.056;2023-07-22T01:15:41;13.70;1.00
506;DHT22;551;48.524;9.056;2023-07-22T01:18:07;13.70;1.00
506;DHT22;551;48.524;9.056;2023-07-22T01:20:33;13.60;1.00
506;DHT22;551;48.524;9.056;2023-07-22T01:22:59;13.60;1.00
506;DHT22;551;48.524;9.056;2023-07-22T01:25:26;13.60;1.00
506;DHT22;551;48.524;9.056;2023-07-22T01:27:51;13.50;1.00
506;DHT22;551;48.524;9.056;2023-07-22T01:30:17;13.50;1.00
506;DHT22;551;48.524;9.056;2023-07-22T01:32:44;13.60;1.00
506;DHT22;551;48.524;9.056;2023-07-22T01:35:10;13.50;1.00
506;DHT22;551;48.524;9.056;2023-07-22T01:37:36;13.40;1.00
506;DHT22;551;48.524;9.056;2023-07-22T01:40:02;13.40;1.00
506;DHT22;551;48.524;9.056;2023-07-22T01:42:38;13.30;1.00
506;DHT22;551;48.524;9.056;2023-07-22T01:45:04;13.30;1.00
506;DHT22;551;48.524;9.056;2023-07-22T01:47:35;13.30;1.00
506;DHT22;551;48.524;9.056;2023-07-22T01:50:02;13.30;1.00
506;DHT22;551;48.524;9.056;2023-07-22T01:52:28;13.30;1.00
506;DHT22;551;48.524;9.056;2023-07-22T01:54:53;13.20;1.00
506;DHT22;551;48.524;9.056;2023-07-22T01:57:19;13.20;1.00
506;DHT22;551;48.524;9.056;2023-07-22T01:59:44;13.20;1.00
506;DHT22;551;48.524;9.056;2023-07-22T02:02:10;13.10;1.00
506;DHT22;551;48.524;9.056;2023-07-22T02:04:36;13.00;1.00
506;DHT22;551;48.524;9.056;2023-07-22T02:07:02;13.00;1.00
506;DHT22;551;48.524;9.056;2023-07-22T02:09:28;12.90;1.00
506;DHT22;551;48.524;9.056;2023-07-22T02:11:53;12.90;1.00
506;DHT22;551;48.524;9.056;2023-07-22T02:14:19;12.90;1.00
506;DHT22;551;48.524;9.056;2023-07-22T02:16:44;12.80;1.00
506;DHT22;551;48.524;9.056;2023-07-22T02:19:10;12.80;1.00
506;DHT22;551;48.524;9.056;2023-07-22T02:21:36;12.70;1.00
506;DHT22;551;48.524;9.056;2023-07-22T02:24:01;12.80;1.00
506;DHT22;551;48.524;9.056;2023-07-22T02:26:27;12.70;1.00
506;DHT22;551;48.524;9.056;2023-07-22T02:28:52;12.70;1.00
506;DHT22;551;48.524;9.056;2023-07-22T02:31:18;12.70;1.00
506;DHT22;551;48.524;9.056;2023-07-22T02:33:43;12.70;1.00
506;DHT22;551;48.524;9.056;2023-07-22T02:36:09;12.70;1.00
506;DHT22;551;48.524;9.056;2023-07-22T02:38:34;12.70;1.00
506;DHT22;551;48.524;9.056;2023-07-22T02:41:04;12.70;1.00
506;DHT22;551;48.524;9.056;2023-07-22T02:43:32;12.70;1.00
506;DHT22;551;48.524;9.056;2023-07-22T02:46:03;12.70;1.00
506;DHT22;551;48.524;9.056;2023-07-22T02:48:31;12.70;1.00
506;DHT22;551;48.524;9.056;2023-07-22T02:53:30;12.60;1.00
506;DHT22;551;48.524;9.056;2023-07-22T02:55:56;12.70;1.00
506;DHT22;551;48.524;9.056;2023-07-22T02:58:21;12.70;1.00
506;DHT22;551;48.524;9.056;2023-07-22T03:00:47;12.70;1.00
506;DHT22;551;48.524;9.056;2023-07-22T03:03:12;12.60;1.00
506;DHT22;551;48.524;9.056;2023-07-22T03:05:38;12.60;1.00
506;DHT22;551;48.524;9.056;2023-07-22T03:08:04;12.60;1.00
506;DHT22;551;48.524;9.056;2023-07-22T03:10:30;12.60;1.00
506;DHT22;551;48.524;9.056;2023-07-22T03:12:56;12.60;1.00
506;DHT22;551;48.524;9.056;2023-07-22T03:15:24;12.60;1.00
506;DHT22;551;48.524;9.056;2023-07-22T03:17:54;12.60;1.00
506;DHT22;551;48.524;9.056;2023-07-22T03:20:21;12.60;1.00
506;DHT22;551;48.524;9.056;2023-07-22T03:22:47;12.60;1.00
506;DHT22;551;48.524;9.056;2023-07-22T03:25:16;12.60;1.00
506;DHT22;551;48.524;9.056;2023-07-22T03:27:45;12.60;1.00
506;DHT22;551;48.524;9.056;2023-07-22T03:30:13;12.60;1.00
506;DHT22;551;48.524;9.056;2023-07-22T03:32:42;12.60;1.00
506;DHT22;551;48.524;9.056;2023-07-22T03:35:09;12.60;1.00
506;DHT22;551;48.524;9.056;2023-07-22T03:37:35;12.60;1.00
506;DHT22;551;48.524;9.056;2023-07-22T03:40:02;12.60;1.00
506;DHT22;551;48.524;9.056;2023-07-22T03:42:28;12.60;1.00
506;DHT22;551;48.524;9.056;2023-07-22T03:44:54;12.50;1.00
506;DHT22;551;48.524;9.056;2023-07-22T03:47:19;12.50;1.00
506;DHT22;551;48.524;9.056;2023-07-22T03:49:45;12.50;1.00
506;DHT22;551;48.524;9.056;2023-07-22T03:52:11;12.50;1.00
506;DHT22;551;48.524;9.056;2023-07-22T03:54:39;12.50;1.00
506;DHT22;551;48.524;9.056;2023-07-22T03:57:05;12.60;1.00
506;DHT22;551;48.524;9.056;2023-07-22T03:59:31;12.50;1.00
506;DHT22;551;48.524;9.056;2023-07-22T04:01:57;12.50;1.00
506;DHT22;551;48.524;9.056;2023-07-22T04:04:22;12.60;1.00
506;DHT22;551;48.524;9.056;2023-07-22T04:06:48;12.50;1.00
506;DHT22;551;48.524;9.056;2023-07-22T04:09:13;12.50;1.00
506;DHT22;551;48.524;9.056;2023-07-22T04:11:39;12.50;1.00
506;DHT22;551;48.524;9.056;2023-07-22T04:14:04;12.60;1.00
506;DHT22;551;48.524;9.056;2023-07-22T04:16:30;12.60;1.00
506;DHT22;551;48.524;9.056;2023-07-22T04:18:56;12.50;1.00
506;DHT22;551;48.524;9.056;2023-07-22T04:21:21;12.60;1.00
506;DHT22;551;48.524;9.056;2023-07-22T04:23:47;12.60;1.00
506;DHT22;551;48.524;9.056;2023-07-22T04:26:14;12.50;1.00
506;DHT22;551;48.524;9.056;2023-07-22T04:28:39;12.50;1.00
506;DHT22;551;48.524;9.056;2023-07-22T04:31:05;12.60;1.00
506;DHT22;551;48.524;9.056;2023-07-22T04:33:31;12.60;1.00
506;DHT22;551;48.524;9.056;2023-07-22T04:35:58;12.60;1.00
506;DHT22;551;48.524;9.056;2023-07-22T04:38:24;12.70;1.00
506;DHT22;551;48.524;9.056;2023-07-22T04:40:50;12.80;1.00
506;DHT22;551;48.524;9.056;2023-07-22T04:43:15;12.90;1.00
506;DHT22;551;48.524;9.056;2023-07-22T04:45:44;12.90;1.00
506;DHT22;551;48.524;9.056;2023-07-22T04:48:10;12.90;1.00
506;DHT22;551;48.524;9.056;2023-07-22T04:50:36;13.00;1.00
506;DHT22;551;48.524;9.056;2023-07-22T04:53:02;13.10;1.00
506;DHT22;551;48.524;9.056;2023-07-22T04:55:28;13.30;1.00
506;DHT22;551;48.524;9.056;2023-07-22T04:57:55;13.80;1.00
506;DHT22;551;48.524;9.056;2023-07-22T05:00:20;14.60;1.00
506;DHT22;551;48.524;9.056;2023-07-22T05:02:47;15.50;1.00
506;DHT22;551;48.524;9.056;2023-07-22T05:05:13;16.40;1.00
506;DHT22;551;48.524;9.056;2023-07-22T05:07:39;17.20;1.00
506;DHT22;551;48.524;9.056;2023-07-22T05:10:05;18.00;1.00
506;DHT22;551;48.524;9.056;2023-07-22T05:12:32;18.80;1.00
506;DHT22;551;48.524;9.056;2023-07-22T05:14:58;19.40;1.00
506;DHT22;551;48.524;9.056;2023-07-22T05:17:23;20.20;1.00
506;DHT22;551;48.524;9.056;2023-07-22T05:19:50;21.00;1.00
506;DHT22;551;48.524;9.056;2023-07-22T05:22:16;22.70;1.00
506;DHT22;551;48.524;9.056;2023-07-22T05:24:42;22.50;1.00
506;DHT22;551;48.524;9.056;2023-07-22T05:27:07;23.50;1.00
506;DHT22;551;48.524;9.056;2023-07-22T05:29:33;24.20;1.00
506;DHT22;551;48.524;9.056;2023-07-22T05:31:58;25.10;1.00
506;DHT22;551;48.524;9.056;2023-07-22T05:34:24;25.30;1.00
506;DHT22;551;48.524;9.056;2023-07-22T05:36:49;25.90;1.00
506;DHT22;551;48.524;9.056;2023-07-22T05:39:15;26.60;1.00
506;DHT22;551;48.524;9.056;2023-07-22T05:41:43;27.40;1.00
506;DHT22;551;48.524;9.056;2023-07-22T05:44:08;28.10;1.00
506;DHT22;551;48.524;9.056;2023-07-22T05:46:34;28.70;1.00
506;DHT22;551;48.524;9.056;2023-07-22T05:48:59;28.90;1.00
506;DHT22;551;48.524;9.056;2023-07-22T05:51:25;29.20;1.00
506;DHT22;551;48.524;9.056;2023-07-22T05:53:50;29.80;1.00
506;DHT22;551;48.524;9.056;2023-07-22T05:56:16;30.30;1.00
506;DHT22;551;48.524;9.056;2023-07-22T05:58:41;30.80;1.00
506;DHT22;551;48.524;9.056;2023-07-22T06:01:08;31.30;1.00
506;DHT22;551;48.524;9.056;2023-07-22T06:03:34;31.50;1.00
506;DHT22;551;48.524;9.056;2023-07-22T06:05:59;31.90;1.00
506;DHT22;551;48.524;9.056;2023-07-22T06:08:25;32.10;1.00
506;DHT22;551;48.524;9.056;2023-07-22T06:10:51;32.40;1.00
506;DHT22;551;48.524;9.056;2023-07-22T06:13:17;32.40;1.00
506;DHT22;551;48.524;9.056;2023-07-22T06:15:42;32.80;1.00
506;DHT22;551;48.524;9.056;2023-07-22T06:18:08;32.80;1.00
506;DHT22;551;48.524;9.056;2023-07-22T06:20:35;33.20;1.00
506;DHT22;551;48.524;9.056;2023-07-22T06:23:01;34.00;1.00
506;DHT22;551;48.524;9.056;2023-07-22T06:25:27;34.00;1.00
506;DHT22;551;48.524;9.056;2023-07-22T06:27:53;34.20;1.00
506;DHT22;551;48.524;9.056;2023-07-22T06:30:19;34.60;1.00
506;DHT22;551;48.524;9.056;2023-07-22T06:32:45;34.90;1.00
506;DHT22;551;48.524;9.056;2023-07-22T06:35:11;35.00;1.00
506;DHT22;551;48.524;9.056;2023-07-22T06:37:36;35.50;1.00
506;DHT22;551;48.524;9.056;2023-07-22T06:40:02;35.40;1.00
506;DHT22;551;48.524;9.056;2023-07-22T06:42:29;35.40;1.00
506;DHT22;551;48.524;9.056;2023-07-22T06:44:55;35.70;1.00
506;DHT22;551;48.524;9.056;2023-07-22T06:47:20;36.00;1.00
506;DHT22;551;48.524;9.056;2023-07-22T06:49:46;36.40;1.00
506;DHT22;551;48.524;9.056;2023-07-22T06:52:11;36.50;1.00
506;DHT22;551;48.524;9.056;2023-07-22T06:54:37;36.80;1.00
506;DHT22;551;48.524;9.056;2023-07-22T06:57:03;37.30;1.00
506;DHT22;551;48.524;9.056;2023-07-22T06:59:28;37.90;1.00
506;DHT22;551;48.524;9.056;2023-07-22T07:01:54;38.40;1.00
506;DHT22;551;48.524;9.056;2023-07-22T07:04:20;38.70;1.00
506;DHT22;551;48.524;9.056;2023-07-22T07:06:46;38.70;1.00
506;DHT22;551;48.524;9.056;2023-07-22T07:09:12;38.80;1.00
506;DHT22;551;48.524;9.056;2023-07-22T07:11:37;39.30;1.00
506;DHT22;551;48.524;9.056;2023-07-22T07:14:03;39.70;1.00
506;DHT22;551;48.524;9.056;2023-07-22T07:16:30;40.10;1.00
506;DHT22;551;48.524;9.056;2023-07-22T07:18:57;40.30;1.00
506;DHT22;551;48.524;9.056;2023-07-22T07:21:23;40.70;1.00
506;DHT22;551;48.524;9.056;2023-07-22T07:23:50;41.10;1.00
506;DHT22;551;48.524;9.056;2023-07-22T07:26:15;41.00;1.00
506;DHT22;551;48.524;9.056;2023-07-22T07:28:41;41.10;1.00
506;DHT22;551;48.524;9.056;2023-07-22T07:31:07;41.70;1.00
506;DHT22;551;48.524;9.056;2023-07-22T07:33:33;42.00;1.00
506;DHT22;551;48.524;9.056;2023-07-22T07:35:58;42.80;1.00
506;DHT22;551;48.524;9.056;2023-07-22T07:38:24;42.90;1.00
506;DHT22;551;48.524;9.056;2023-07-22T07:40:55;43.30;1.00
506;DHT22;551;48.524;9.056;2023-07-22T07:43:21;43.90;1.00
506;DHT22;551;48.524;9.056;2023-07-22T07:45:47;43.30;1.00
506;DHT22;551;48.524;9.056;2023-07-22T07:48:12;43.60;1.00
506;DHT22;551;48.524;9.056;2023-07-22T07:50:38;43.70;1.00
506;DHT22;551;48.524;9.056;2023-07-22T07:53:03;44.40;1.00
506;DHT22;551;48.524;9.056;2023-07-22T07:55:29;45.10;1.00
506;DHT22;551;48.524;9.056;2023-07-22T07:57:54;45.10;1.00
506;DHT22;551;48.524;9.056;2023-07-22T08:00:20;45.30;1.00
506;DHT22;551;48.524;9.056;2023-07-22T08:02:46;45.00;1.00
506;DHT22;551;48.524;9.056;2023-07-22T08:05:12;45.00;1.00
506;DHT22;551;48.524;9.056;2023-07-22T08:07:38;44.90;1.00
506;DHT22;551;48.524;9.056;2023-07-22T08:10:05;44.50;1.00
506;DHT22;551;48.524;9.056;2023-07-22T08:12:32;44.50;1.00
506;DHT22;551;48.524;9.056;2023-07-22T08:14:58;44.50;1.00
506;DHT22;551;48.524;9.056;2023-07-22T08:17:24;44.30;1.00
506;DHT22;551;48.524;9.056;2023-07-22T08:19:49;44.60;1.00
506;DHT22;551;48.524;9.056;2023-07-22T08:22:15;45.00;1.00
506;DHT22;551;48.524;9.056;2023-07-22T08:24:40;45.00;1.00
506;DHT22;551;48.524;9.056;2023-07-22T08:27:06;45.00;1.00
506;DHT22;551;48.524;9.056;2023-07-22T08:29:33;44.50;1.00
506;DHT22;551;48.524;9.056;2023-07-22T08:31:58;44.40;1.00
506;DHT22;551;48.524;9.056;2023-07-22T08:34:24;44.50;1.00
506;DHT22;551;48.524;9.056;2023-07-22T08:36:49;44.60;1.00
506;DHT22;551;48.524;9.056;2023-07-22T08:39:15;44.10;1.00
506;DHT22;551;48.524;9.056;2023-07-22T08:41:41;44.00;1.00
506;DHT22;551;48.524;9.056;2023-07-22T08:44:10;43.60;1.00
506;DHT22;551;48.524;9.056;2023-07-22T08:46:39;43.90;1.00
506;DHT22;551;48.524;9.056;2023-07-22T08:49:06;43.50;1.00
506;DHT22;551;48.524;9.056;2023-07-22T08:51:33;44.00;1.00
506;DHT22;551;48.524;9.056;2023-07-22T08:54:00;44.70;1.00
506;DHT22;551;48.524;9.056;2023-07-22T08:56:27;44.70;1.00
506;DHT22;551;48.524;9.056;2023-07-22T08:58:54;44.60;1.00
506;DHT22;551;48.524;9.056;2023-07-22T09:01:20;44.90;1.00
506;DHT22;551;48.524;9.056;2023-07-22T09:03:48;44.80;1.00
506;DHT22;551;48.524;9.056;2023-07-22T09:06:14;44.40;1.00
506;DHT22;551;48.524;9.056;2023-07-22T09:08:39;44.10;1.00
506;DHT22;551;48.524;9.056;2023-07-22T09:11:06;44.00;1.00
506;DHT22;551;48.524;9.056;2023-07-22T09:13:32;44.70;1.00
506;DHT22;551;48.524;9.056;2023-07-22T09:15:59;44.90;1.00
506;DHT22;551;48.524;9.056;2023-07-22T09:18:25;44.30;1.00
506;DHT22;551;48.524;9.056;2023-07-22T09:20:51;44.30;1.00
506;DHT22;551;48.524;9.056;2023-07-22T09:23:17;42.70;1.00
506;DHT22;551;48.524;9.056;2023-07-22T09:25:43;40.00;1.00
506;DHT22;551;48.524;9.056;2023-07-22T09:28:08;37.90;1.00
506;DHT22;551;48.524;9.056;2023-07-22T09:30:36;37.20;1.00
506;DHT22;551;48.524;9.056;2023-07-22T09:33:04;38.20;1.00
506;DHT22;551;48.524;9.056;2023-07-22T09:35:43;38.70;1.00
506;DHT22;551;48.524;9.056;2023-07-22T09:38:09;40.00;1.00
506;DHT22;551;48.524;9.056;2023-07-22T09:40:34;41.40;1.00
506;DHT22;551;48.524;9.056;2023-07-22T09:43:01;41.90;1.00
506;DHT22;551;48.524;9.056;2023-07-22T09:45:30;41.20;1.00
506;DHT22;551;48.524;9.056;2023-07-22T09:47:56;39.40;1.00
506;DHT22;551;48.524;9.056;2023-07-22T09:50:24;38.10;1.00
506;DHT22;551;48.524;9.056;2023-07-22T09:52:52;38.30;1.00
506;DHT22;551;48.524;9.056;2023-07-22T09:55:26;39.00;1.00
506;DHT22;551;48.524;9.056;2023-07-22T10:00:28;37.60;1.00
506;DHT22;551;48.524;9.056;2023-07-22T10:02:57;38.40;1.00
506;DHT22;551;48.524;9.056;2023-07-22T10:05:24;38.00;1.00
506;DHT22;551;48.524;9.056;2023-07-22T10:07:53;38.40;1.00
506;DHT22;551;48.524;9.056;2023-07-22T10:10:33;38.00;1.00
506;DHT22;551;48.524;9.056;2023-07-22T10:12:59;37.00;1.00
506;DHT22;551;48.524;9.056;2023-07-22T10:15:28;36.30;1.00
506;DHT22;551;48.524;9.056;2023-07-22T10:17:55;35.60;1.00
506;DHT22;551;48.524;9.056;2023-07-22T10:20:22;34.30;1.00
506;DHT22;551;48.524;9.056;2023-07-22T10:22:48;33.60;1.00
506;DHT22;551;48.524;9.056;2023-07-22T10:25:16;33.20;1.00
506;DHT22;551;48.524;9.056;2023-07-22T10:27:42;32.60;1.00
506;DHT22;551;48.524;9.056;2023-07-22T10:30:10;32.30;1.00
506;DHT22;551;48.524;9.056;2023-07-22T10:32:44;31.90;1.00
506;DHT22;551;48.524;9.056;2023-07-22T10:35:12;31.30;1.00
506;DHT22;551;48.524;9.056;2023-07-22T10:37:41;31.00;1.00
506;DHT22;551;48.524;9.056;2023-07-22T10:40:26;31.20;1.00
506;DHT22;551;48.524;9.056;2023-07-22T10:42:54;31.50;1.00
506;DHT22;551;48.524;9.056;2023-07-22T10:45:31;32.70;1.00
506;DHT22;551;48.524;9.056;2023-07-22T10:48:01;34.50;1.00
506;DHT22;551;48.524;9.056;2023-07-22T10:50:52;34.90;1.00
506;DHT22;551;48.524;9.056;2023-07-22T10:53:47;34.70;1.00
506;DHT22;551;48.524;9.056;2023-07-22T10:56:19;33.90;1.00
506;DHT22;551;48.524;9.056;2023-07-22T11:06:52;37.90;1.00
506;DHT22;551;48.524;9.056;2023-07-22T11:11:55;40.10;1.00
506;DHT22;551;48.524;9.056;2023-07-22T11:14:25;40.20;1.00
506;DHT22;551;48.524;9.056;2023-07-22T11:16:51;39.60;1.00
506;DHT22;551;48.524;9.056;2023-07-22T11:19:19;39.40;1.00
506;DHT22;551;48.524;9.056;2023-07-22T11:21:47;38.50;1.00
506;DHT22;551;48.524;9.056;2023-07-22T11:24:13;37.10;1.00
506;DHT22;551;48.524;9.056;2023-07-22T11:26:39;35.90;1.00
506;DHT22;551;48.524;9.056;2023-07-22T11:29:06;35.40;1.00
506;DHT22;551;48.524;9.056;2023-07-22T11:31:37;34.50;1.00
506;DHT22;551;48.524;9.056;2023-07-22T11:34:04;34.00;1.00
506;DHT22;551;48.524;9.056;2023-07-22T11:36:30;34.60;1.00
506;DHT22;551;48.524;9.056;2023-07-22T11:39:12;35.80;1.00
506;DHT22;551;48.524;9.056;2023-07-22T11:41:39;37.00;1.00
506;DHT22;551;48.524;9.056;2023-07-22T11:44:07;37.40;1.00
506;DHT22;551;48.524;9.056;2023-07-22T11:46:48;38.10;1.00
506;DHT22;551;48.524;9.056;2023-07-22T11:49:31;38.20;1.00
506;DHT22;551;48.524;9.056;2023-07-22T11:52:03;37.00;1.00
506;DHT22;551;48.524;9.056;2023-07-22T11:54:30;36.10;1.00
506;DHT22;551;48.524;9.056;2023-07-22T11:56:56;35.90;1.00
506;DHT22;551;48.524;9.056;2023-07-22T11:59:36;35.90;1.00
506;DHT22;551;48.524;9.056;2023-07-22T12:02:03;35.90;1.00
506;DHT22;551;48.524;9.056;2023-07-22T12:04:33;36.40;1.00
506;DHT22;551;48.524;9.056;2023-07-22T12:07:02;36.50;1.00
506;DHT22;551;48.524;9.056;2023-07-22T12:09:29;36.10;1.00
506;DHT22;551;48.524;9.056;2023-07-22T12:11:56;35.40;1.00
506;DHT22;551;48.524;9.056;2023-07-22T12:14:24;34.90;1.00
506;DHT22;551;48.524;9.056;2023-07-22T12:16:55;34.20;1.00
506;DHT22;551;48.524;9.056;2023-07-22T12:19:22;33.70;1.00
506;DHT22;551;48.524;9.056;2023-07-22T12:21:47;33.30;1.00
506;DHT22;551;48.524;9.056;2023-07-22T12:24:14;32.70;1.00
506;DHT22;551;48.524;9.056;2023-07-22T12:26:40;32.50;1.00
506;DHT22;551;48.524;9.056;2023-07-22T12:29:05;32.20;1.00
506;DHT22;551;48.524;9.056;2023-07-22T12:31:31;31.90;1.00
506;DHT22;551;48.524;9.056;2023-07-22T12:33:56;31.90;1.00
506;DHT22;551;48.524;9.056;2023-07-22T12:36:22;32.00;1.00
506;DHT22;551;48.524;9.056;2023-07-22T12:38:48;32.00;1.00
506;DHT22;551;48.524;9.056;2023-07-22T12:41:14;31.70;1.00
506;DHT22;551;48.524;9.056;2023-07-22T12:43:39;31.40;1.00
506;DHT22;551;48.524;9.056;2023-07-22T12:46:05;31.20;1.00
506;DHT22;551;48.524;9.056;2023-07-22T12:48:30;31.00;1.00
506;DHT22;551;48.524;9.056;2023-07-22T12:50:56;30.90;1.00
506;DHT22;551;48.524;9.056;2023-07-22T12:53:21;30.60;1.00
506;DHT22;551;48.524;9.056;2023-07-22T12:55:47;30.50;1.00
506;DHT22;551;48.524;9.056;2023-07-22T12:58:13;30.50;1.00
506;DHT22;551;48.524;9.056;2023-07-22T13:00:39;30.30;1.00
506;DHT22;551;48.524;9.056;2023-07-22T13:03:04;30.10;1.00
506;DHT22;551;48.524;9.056;2023-07-22T13:05:30;30.10;1.00
506;DHT22;551;48.524;9.056;2023-07-22T13:07:55;30.10;1.00
506;DHT22;551;48.524;9.056;2023-07-22T13:10:22;30.10;1.00
506;DHT22;551;48.524;9.056;2023-07-22T13:12:48;30.10;1.00
506;DHT22;551;48.524;9.056;2023-07-22T13:15:14;30.00;1.00
506;DHT22;551;48.524;9.056;2023-07-22T13:17:39;30.00;1.00
506;DHT22;551;48.524;9.056;2023-07-22T13:20:05;30.00;1.00
506;DHT22;551;48.524;9.056;2023-07-22T13:22:35;29.80;1.00
506;DHT22;551;48.524;9.056;2023-07-22T13:25:01;29.80;1.00
506;DHT22;551;48.524;9.056;2023-07-22T13:27:27;29.80;1.00
506;DHT22;551;48.524;9.056;2023-07-22T13:29:52;29.60;1.00
506;DHT22;551;48.524;9.056;2023-07-22T13:32:18;29.50;1.00
506;DHT22;551;48.524;9.056;2023-07-22T13:34:43;29.50;1.00
506;DHT22;551;48.524;9.056;2023-07-22T13:37:09;29.50;1.00
506;DHT22;551;48.524;9.056;2023-07-22T13:39:34;29.60;1.00
506;DHT22;551;48.524;9.056;2023-07-22T13:42:00;29.40;1.00
506;DHT22;551;48.524;9.056;2023-07-22T13:44:25;29.40;1.00
506;DHT22;551;48.524;9.056;2023-07-22T13:46:51;29.30;1.00
506;DHT22;551;48.524;9.056;2023-07-22T13:49:16;29.30;1.00
506;DHT22;551;48.524;9.056;2023-07-22T13:51:43;29.30;1.00
506;DHT22;551;48.524;9.056;2023-07-22T13:54:08;29.30;1.00
506;DHT22;551;48.524;9.056;2023-07-22T13:56:34;29.20;1.00
506;DHT22;551;48.524;9.056;2023-07-22T13:59:00;29.10;1.00
506;DHT22;551;48.524;9.056;2023-07-22T14:01:26;28.90;1.00
506;DHT22;551;48.524;9.056;2023-07-22T14:03:52;28.80;1.00
506;DHT22;551;48.524;9.056;2023-07-22T14:06:18;28.90;1.00
506;DHT22;551;48.524;9.056;2023-07-22T14:08:43;29.10;1.00
506;DHT22;551;48.524;9.056;2023-07-22T14:11:09;29.30;1.00
506;DHT22;551;48.524;9.056;2023-07-22T14:13:34;29.50;1.00
506;DHT22;551;48.524;9.056;2023-07-22T14:16:02;29.40;1.00
506;DHT22;551;48.524;9.056;2023-07-22T14:18:28;29.30;1.00
506;DHT22;551;48.524;9.056;2023-07-22T14:20:57;29.30;1.00
506;DHT22;551;48.524;9.056;2023-07-22T14:23:22;29.30;1.00
506;DHT22;551;48.524;9.056;2023-07-22T14:25:48;29.30;1.00
506;DHT22;551;48.524;9.056;2023-07-22T14:28:13;29.30;1.00
506;DHT22;551;48.524;9.056;2023-07-22T14:30:39;29.30;1.00
506;DHT22;551;48.524;9.056;2023-07-22T14:33:04;29.20;1.00
506;DHT22;551;48.524;9.056;2023-07-22T14:35:30;29.40;1.00
506;DHT22;551;48.524;9.056;2023-07-22T14:37:58;29.50;1.00
506;DHT22;551;48.524;9.056;2023-07-22T14:40:25;29.60;1.00
506;DHT22;551;48.524;9.056;2023-07-22T14:42:50;29.50;1.00
506;DHT22;551;48.524;9.056;2023-07-22T14:45:16;29.70;1.00
506;DHT22;551;48.524;9.056;2023-07-22T14:47:42;29.60;1.00
506;DHT22;551;48.524;9.056;2023-07-22T14:50:07;29.50;1.00
506;DHT22;551;48.524;9.056;2023-07-22T14:52:33;29.40;1.00
506;DHT22;551;48.524;9.056;2023-07-22T14:54:59;29.40;1.00
506;DHT22;551;48.524;9.056;2023-07-22T14:57:24;29.30;1.00
506;DHT22;551;48.524;9.056;2023-07-22T14:59:55;29.00;1.00
506;DHT22;551;48.524;9.056;2023-07-22T15:02:20;28.90;1.00
506;DHT22;551;48.524;9.056;2023-07-22T15:04:47;28.80;1.00
506;DHT22;551;48.524;9.056;2023-07-22T15:07:12;28.60;1.00
506;DHT22;551;48.524;9.056;2023-07-22T15:09:38;28.40;1.00
506;DHT22;551;48.524;9.056;2023-07-22T15:12:04;28.30;1.00
506;DHT22;551;48.524;9.056;2023-07-22T15:14:29;28.40;1.00
506;DHT22;551;48.524;9.056;2023-07-22T15:16:55;28.30;1.00
506;DHT22;551;48.524;9.056;2023-07-22T15:19:20;28.30;1.00
506;DHT22;551;48.524;9.056;2023-07-22T15:21:49;28.40;1.00
506;DHT22;551;48.524;9.056;2023-07-22T15:24:14;28.60;1.00
506;DHT22;551;48.524;9.056;2023-07-22T15:26:40;28.60;1.00
506;DHT22;551;48.524;9.056;2023-07-22T15:29:06;28.50;1.00
506;DHT22;551;48.524;9.056;2023-07-22T15:31:32;28.50;1.00
506;DHT22;551;48.524;9.056;2023-07-22T15:33:57;28.50;1.00
506;DHT22;551;48.524;9.056;2023-07-22T15:36:24;28.30;1.00
506;DHT22;551;48.524;9.056;2023-07-22T15:38:49;28.40;1.00
506;DHT22;551;48.524;9.056;2023-07-22T15:41:15;28.50;1.00
506;DHT22;551;48.524;9.056;2023-07-22T15:43:41;28.50;1.00
506;DHT22;551;48.524;9.056;2023-07-22T15:46:06;28.50;1.00
506;DHT22;551;48.524;9.056;2023-07-22T15:48:32;28.60;1.00
506;DHT22;551;48.524;9.056;2023-07-22T15:50:57;28.60;1.00
506;DHT22;551;48.524;9.056;2023-07-22T15:53:23;28.50;1.00
506;DHT22;551;48.524;9.056;2023-07-22T15:55:49;28.60;1.00
506;DHT22;551;48.524;9.056;2023-07-22T15:58:15;28.60;1.00
506;DHT22;551;48.524;9.056;2023-07-22T16:00:41;28.60;1.00
506;DHT22;551;48.524;9.056;2023-07-22T16:03:07;28.60;1.00
506;DHT22;551;48.524;9.056;2023-07-22T16:05:33;28.60;1.00
506;DHT22;551;48.524;9.056;2023-07-22T16:07:59;28.60;1.00
506;DHT22;551;48.524;9.056;2023-07-22T16:10:24;28.60;1.00
506;DHT22;551;48.524;9.056;2023-07-22T16:12:50;28.60;1.00
506;DHT22;551;48.524;9.056;2023-07-22T16:15:15;28.50;1.00
506;DHT22;551;48.524;9.056;2023-07-22T16:17:41;28.50;1.00
506;DHT22;551;48.524;9.056;2023-07-22T16:20:08;28.50;1.00
506;DHT22;551;48.524;9.056;2023-07-22T16:22:35;28.40;1.00
506;DHT22;551;48.524;9.056;2023-07-22T16:25:00;28.40;1.00
506;DHT22;551;48.524;9.056;2023-07-22T16:27:26;28.30;1.00
506;DHT22;551;48.524;9.056;2023-07-22T16:29:51;28.10;1.00
506;DHT22;551;48.524;9.056;2023-07-22T16:32:17;28.00;1.00
506;DHT22;551;48.524;9.056;2023-07-22T16:34:42;27.90;1.00
506;DHT22;551;48.524;9.056;2023-07-22T16:37:08;27.80;1.00
506;DHT22;551;48.524;9.056;2023-07-22T16:39:33;27.80;1.00
506;DHT22;551;48.524;9.056;2023-07-22T16:41:59;27.80;1.00
506;DHT22;551;48.524;9.056;2023-07-22T16:44:24;27.80;1.00
506;DHT22;551;48.524;9.056;2023-07-22T16:46:50;27.90;1.00
506;DHT22;551;48.524;9.056;2023-07-22T16:49:16;27.90;1.00
506;DHT22;551;48.524;9.056;2023-07-22T16:51:42;27.80;1.00
506;DHT22;551;48.524;9.056;2023-07-22T16:54:08;27.70;1.00
506;DHT22;551;48.524;9.056;2023-07-22T16:56:34;27.70;1.00
506;DHT22;551;48.524;9.056;2023-07-22T16:58:59;27.60;1.00
506;DHT22;551;48.524;9.056;2023-07-22T17:01:25;27.60;1.00